Time;durP1;ratioP1;P1;durP2;ratioP2;P2;SDS_P1;SDS_P2;PMS_P1;PMS_P2;Temp;Humidity;BMP_temperature;BMP_pressure;BME280_temperature;BME280_humidity;BME280_pressure;Samples;Min_cycle;Max_cycle;Signal;HPM_P1;HPM_P2
2022/04/25 00:00:52;;;;;;;12.47;6.50;;;;;;;8.47;73.65;100682.38;5256397;28;20072;-78
2022/04/25 00:03:24;;;;;;;11.40;6.57;;;;;;;8.40;73.91;100686.69;5257292;28;20557;-75
2022/04/25 00:05:56;;;;;;;12.17;6.20;;;;;;;8.33;74.61;100690.22;5256260;28;20036;-79
2022/04/25 00:08:27;;;;;;;14.95;6.50;;;;;;;8.23;75.16;100692.00;5239744;28;20039;-77
2022/04/25 00:10:59;;;;;;;10.83;5.83;;;;;;;8.15;75.15;100697.22;5256806;28;20028;-75
2022/04/25 00:13:30;;;;;;;13.43;5.90;;;;;;;8.18;75.40;100698.94;5255991;28;20017;-80
2022/04/25 00:16:02;;;;;;;11.07;6.47;;;;;;;8.12;75.63;100693.78;5259014;28;20040;-76
2022/04/25 00:18:33;;;;;;;12.17;7.83;;;;;;;8.07;75.78;100696.38;5257653;28;20048;-76
2022/04/25 00:21:05;;;;;;;11.40;6.03;;;;;;;7.95;75.86;100697.31;5258048;28;20476;-80
2022/04/25 00:23:37;;;;;;;11.33;5.90;;;;;;;7.98;76.05;100702.47;5261738;28;20021;-76
2022/04/25 00:26:09;;;;;;;13.45;6.20;;;;;;;7.81;76.44;100704.28;5243251;28;20033;-79
2022/04/25 00:28:40;;;;;;;9.13;6.40;;;;;;;7.72;77.29;100699.09;5237195;28;20037;-79
2022/04/25 00:31:13;;;;;;;11.17;6.83;;;;;;;7.55;77.77;100704.31;5236969;28;20067;-74
2022/04/25 00:33:45;;;;;;;11.73;6.65;;;;;;;7.53;78.62;100703.44;5247176;28;20040;-75
2022/04/25 00:36:16;;;;;;;11.43;6.53;;;;;;;7.40;78.88;100697.41;5257896;28;20033;-75
2022/04/25 00:38:48;;;;;;;12.03;6.33;;;;;;;7.36;79.33;100706.06;5258986;28;20036;-78
2022/04/25 00:41:19;;;;;;;14.03;9.20;;;;;;;7.46;79.25;100697.41;5257865;28;20468;-79
2022/04/25 00:43:57;;;;;;;12.27;7.17;;;;;;;7.36;79.24;100691.38;5251904;28;20029;-78
2022/04/25 00:46:28;;;;;;;10.90;6.57;;;;;;;7.36;79.55;100693.09;5236858;28;20033;-75
2022/04/25 00:49:00;;;;;;;14.13;7.87;;;;;;;7.24;79.60;100694.81;5236737;28;20386;-78
2022/04/25 00:51:31;;;;;;;11.33;7.87;;;;;;;7.14;80.18;100697.44;5236994;28;20029;-79
2022/04/25 00:54:03;;;;;;;11.07;7.30;;;;;;;7.12;80.34;100693.09;5238019;28;20032;-79
2022/04/25 00:56:35;;;;;;;13.20;7.37;;;;;;;7.12;80.61;100702.63;5258151;28;20052;-76
2022/04/25 00:59:07;;;;;;;16.52;7.80;;;;;;;7.06;81.01;100697.44;5258061;28;20069;-78
2022/04/25 01:01:40;;;;;;;13.15;7.47;;;;;;;7.05;81.16;100701.75;5239484;28;20470;-78
2022/04/25 01:04:12;;;;;;;15.73;8.07;;;;;;;6.94;81.39;100693.13;5257359;28;20025;-79
2022/04/25 01:06:43;;;;;;;15.85;7.72;;;;;;;6.86;81.81;100693.09;5255884;28;20025;-76
2022/04/25 01:09:14;;;;;;;14.50;7.53;;;;;;;6.86;81.84;100700.88;5257492;28;20048;-78
2022/04/25 01:11:47;;;;;;;10.90;7.47;;;;;;;6.83;82.35;100694.84;5238616;28;20063;-79
2022/04/25 01:14:23;;;;;;;8.82;6.75;;;;;;;6.80;82.18;100694.84;5257558;28;20021;-74
2022/04/25 01:16:55;;;;;;;12.57;7.60;;;;;;;6.65;82.99;100695.66;5256261;28;20033;-80
2022/04/25 01:19:26;;;;;;;14.30;7.20;;;;;;;6.74;83.14;100698.25;5256881;28;20036;-77
2022/04/25 01:21:59;;;;;;;12.27;8.03;;;;;;;6.70;83.08;100702.59;5257518;28;20037;-79
2022/04/25 01:27:24;;;;;;;12.98;8.23;;;;;;;6.61;83.58;100693.94;5257260;28;20144;-78
2022/04/25 01:29:55;;;;;;;14.93;8.10;;;;;;;6.64;83.53;100683.56;5261858;28;20021;-75
2022/04/25 01:32:26;;;;;;;17.07;7.37;;;;;;;6.61;83.55;100699.13;5260632;28;20025;-77
2022/04/25 01:34:58;;;;;;;14.57;8.33;;;;;;;6.60;83.78;100699.97;5260859;28;20073;-78
2022/04/25 01:37:31;;;;;;;15.47;9.33;;;;;;;6.56;84.15;100697.38;5261744;28;20029;-79
2022/04/25 01:40:02;;;;;;;;;;;;;;;6.55;82.60;100703.41;5260644;28;20048;-75
2022/04/25 01:42:34;;;;;;;10.38;8.23;;;;;;;6.44;83.76;100706.81;5261573;28;19917;-79
2022/04/25 01:45:06;;;;;;;12.83;8.70;;;;;;;6.43;84.34;100703.38;5261658;28;20025;-77
2022/04/25 01:47:37;;;;;;;14.45;9.73;;;;;;;6.42;84.69;100705.97;5261349;28;20503;-77
2022/04/25 01:50:08;;;;;;;15.57;7.90;;;;;;;6.44;84.64;100705.13;5261209;28;20087;-77
2022/04/25 01:52:40;;;;;;;14.20;9.33;;;;;;;6.36;84.79;100705.09;5260418;28;20033;-78
2022/04/25 01:55:12;;;;;;;16.97;8.93;;;;;;;6.40;84.48;100705.97;5262171;28;20245;-75
2022/04/25 01:57:43;;;;;;;14.23;8.93;;;;;;;6.23;85.38;100708.50;5261524;28;20522;-75
2022/04/25 02:00:15;;;;;;;14.20;9.37;;;;;;;6.31;85.60;100705.91;5258967;28;20032;-78
2022/04/25 02:02:46;;;;;;;11.60;9.17;;;;;;;6.16;85.68;100707.59;5257380;28;20057;-78
2022/04/25 02:05:18;;;;;;;13.67;9.80;;;;;;;6.12;86.20;100705.00;5258954;28;20088;-79
2022/04/25 02:07:49;;;;;;;15.30;9.03;;;;;;;6.04;86.79;100702.38;5260567;28;20036;-78
2022/04/25 02:10:20;;;;;;;13.07;9.30;;;;;;;6.02;86.87;100699.78;5242824;28;20537;-79
2022/04/25 02:12:52;;;;;;;13.43;10.03;;;;;;;5.99;87.31;100698.91;5258231;28;20033;-76
2022/04/25 02:15:24;;;;;;;14.87;10.10;;;;;;;5.97;87.40;100692.84;5260996;28;20024;-78
2022/04/25 02:17:55;;;;;;;15.55;9.70;;;;;;;6.04;87.42;100694.63;5260032;28;20065;-80
2022/04/25 02:20:27;;;;;;;15.67;9.63;;;;;;;5.99;87.36;100693.75;5260263;28;20490;-77
2022/04/25 02:22:58;;;;;;;14.27;10.23;;;;;;;5.92;87.92;100702.28;5259895;28;20480;-76
2022/04/25 02:25:29;;;;;;;17.33;9.73;;;;;;;5.86;88.26;100695.38;5259510;28;20040;-75
2022/04/25 02:28:00;;;;;;;19.57;10.50;;;;;;;5.80;89.13;100697.91;5260304;28;20044;-78
2022/04/25 02:30:32;;;;;;;13.67;10.37;;;;;;;5.73;89.45;100694.44;5259794;28;20029;-79
2022/04/25 02:33:03;;;;;;;15.93;10.43;;;;;;;5.75;89.69;100699.63;5258964;28;20039;-79
2022/04/25 02:35:35;;;;;;;19.10;10.23;;;;;;;5.69;89.80;100695.25;5258417;28;20084;-78
2022/04/25 02:38:06;;;;;;;17.07;10.37;;;;;;;5.70;89.76;100689.25;5258004;28;20048;-78
2022/04/25 02:40:37;;;;;;;14.40;10.93;;;;;;;5.61;89.76;100692.63;5257468;28;20056;-74
2022/04/25 02:43:09;;;;;;;14.63;10.93;;;;;;;5.64;90.11;100686.63;5256828;28;20673;-78
2022/04/25 02:45:40;;;;;;;18.07;10.57;;;;;;;5.65;90.25;100701.25;5258230;28;20032;-79
2022/04/25 02:48:12;;;;;;;16.67;10.67;;;;;;;5.63;90.14;100696.06;5259374;28;20067;-78
2022/04/25 02:50:44;;;;;;;14.43;10.40;;;;;;;5.60;90.04;100703.84;5258876;28;20033;-76
2022/04/25 02:53:15;;;;;;;16.98;10.48;;;;;;;5.59;90.16;100693.50;5260130;28;20025;-78
2022/04/25 02:55:47;;;;;;;20.53;11.87;;;;;;;5.68;90.15;100693.53;5258390;28;20091;-78
2022/04/25 02:58:21;;;;;;;17.80;10.57;;;;;;;5.60;89.75;100698.66;5259649;28;20036;-77
2022/04/25 03:00:53;;;;;;;15.60;10.40;;;;;;;5.59;90.03;100694.34;5261299;28;20412;-78
2022/04/25 03:03:25;;;;;;;17.63;11.37;;;;;;;5.45;90.29;100702.00;5259652;28;20036;-76
2022/04/25 03:05:56;;;;;;;16.25;10.93;;;;;;;5.48;90.60;100691.69;5260239;28;20028;-78
2022/04/25 03:08:28;;;;;;;15.07;10.67;;;;;;;5.44;91.00;100697.72;5259218;28;20029;-77
2022/04/25 03:11:03;;;;;;;27.70;11.55;;;;;;;5.38;91.06;100695.06;5258847;28;20055;-78
2022/04/25 03:13:36;;;;;;;17.48;10.80;;;;;;;5.28;91.82;100701.91;5259975;28;20025;-74
2022/04/25 03:16:08;;;;;;;16.90;11.68;;;;;;;5.29;92.28;100701.03;5260012;28;20036;-79
2022/04/25 03:18:40;;;;;;;17.80;12.10;;;;;;;5.28;92.46;100703.59;5260733;28;20028;-75
2022/04/25 03:21:11;;;;;;;15.87;11.67;;;;;;;5.21;92.55;100697.50;5240723;28;20060;-78
2022/04/25 03:23:43;;;;;;;15.93;12.00;;;;;;;5.13;93.29;100693.16;5258903;28;20052;-75
2022/04/25 03:26:15;;;;;;;16.93;11.87;;;;;;;5.15;93.55;100694.03;5241517;28;20279;-79
2022/04/25 03:28:46;;;;;;;20.30;12.80;;;;;;;5.14;93.16;100694.91;5259518;28;20028;-75
2022/04/25 03:31:17;;;;;;;18.10;11.50;;;;;;;5.19;93.28;100698.38;5258976;28;20597;-78
2022/04/25 03:33:49;;;;;;;14.63;11.43;;;;;;;5.15;93.59;100694.03;5259804;28;20044;-75
2022/04/25 03:36:20;;;;;;;22.00;12.10;;;;;;;5.11;93.15;100704.34;5257183;28;20033;-75
2022/04/25 03:38:53;;;;;;;19.23;13.47;;;;;;;5.11;93.17;100698.31;5256893;28;20183;-78
2022/04/25 03:41:24;;;;;;;16.08;12.30;;;;;;;5.15;93.03;100706.94;5256800;28;20499;-78
2022/04/25 03:43:56;;;;;;;18.83;12.80;;;;;;;5.10;93.39;100707.78;5239833;28;20020;-79
2022/04/25 03:46:27;;;;;;;17.60;13.20;;;;;;;5.05;93.86;100709.44;5257525;28;20429;-76
2022/04/25 03:48:58;;;;;;;16.10;11.53;;;;;;;4.95;93.56;100707.66;5257484;28;20032;-79
2022/04/25 03:51:30;;;;;;;18.03;13.03;;;;;;;4.99;93.96;100709.41;5257307;28;20043;-77
2022/04/25 03:54:01;;;;;;;18.87;12.90;;;;;;;4.93;94.14;100715.38;5239600;28;20056;-79
2022/04/25 03:59:23;;;;;;;22.10;13.15;;;;;;;4.91;94.02;100714.50;5256947;28;20072;-78
2022/04/25 04:01:54;;;;;;;21.63;13.93;;;;;;;4.83;94.46;100713.56;5256654;28;20100;-76
2022/04/25 04:04:26;;;;;;;18.83;12.83;;;;;;;4.85;95.04;100713.59;5239218;28;20044;-77
2022/04/25 04:06:57;;;;;;;19.43;12.90;;;;;;;4.84;95.68;100712.69;5256893;28;20100;-77
2022/04/25 04:09:47;;;;;;;21.93;13.60;;;;;;;4.76;95.87;100714.34;5256750;28;20051;-77
2022/04/25 04:12:20;;;;;;;23.70;13.73;;;;;;;4.74;96.16;100711.75;5256940;28;20025;-75
2022/04/25 04:14:51;;;;;;;15.32;12.60;;;;;;;4.76;96.28;100722.09;5238624;28;20033;-78
2022/04/25 04:17:22;;;;;;;20.73;14.97;;;;;;;4.77;96.64;100715.22;5256401;28;20400;-77
2022/04/25 04:19:54;;;;;;;18.87;15.60;;;;;;;4.74;97.02;100719.50;5256184;28;20075;-76
2022/04/25 04:22:30;;;;;;;19.07;14.77;;;;;;;4.77;97.33;100728.16;5257752;28;20162;-80
2022/04/25 04:25:13;;;;;;;18.52;14.73;;;;;;;4.79;98.07;100729.03;5255507;28;20033;-75
2022/04/25 04:27:45;;;;;;;19.67;14.75;;;;;;;4.82;97.97;100727.31;5238575;28;20029;-76
2022/04/25 04:30:18;;;;;;;22.20;15.27;;;;;;;4.81;98.29;100729.88;5256431;28;20029;-74
2022/04/25 04:32:52;;;;;;;22.17;16.30;;;;;;;4.80;98.55;100736.78;5222735;28;20044;-75
2022/04/25 04:38:13;;;;;;;20.77;16.33;;;;;;;4.81;98.60;100735.06;5257674;28;20033;-78
2022/04/25 04:40:44;;;;;;;22.53;16.03;;;;;;;4.77;98.81;100736.75;5257467;28;20029;-75
2022/04/25 04:43:16;;;;;;;23.43;16.67;;;;;;;4.80;99.47;100739.38;5256413;28;20060;-78
2022/04/25 04:45:47;;;;;;;26.23;16.97;;;;;;;4.77;99.66;100741.06;5245633;28;20412;-79
2022/04/25 04:48:19;;;;;;;25.90;17.73;;;;;;;4.80;99.61;100746.22;5235937;28;20030;-75
2022/04/25 04:50:55;;;;;;;19.77;15.67;;;;;;;4.80;99.39;100741.94;5218658;28;20079;-75
2022/04/25 04:53:27;;;;;;;23.13;16.38;;;;;;;4.83;99.37;100746.25;5218876;28;20025;-79
2022/04/25 04:55:59;;;;;;;21.80;15.90;;;;;;;4.81;99.36;100740.22;5236371;28;20033;-74
2022/04/25 04:58:31;;;;;;;;;;;;;;;4.80;99.08;100754.84;5237895;28;20021;-79
2022/04/25 05:01:03;;;;;;;20.45;15.68;;;;;;;4.81;99.01;100754.00;5239976;28;19921;-78
2022/04/25 05:03:34;;;;;;;19.17;16.53;;;;;;;4.81;99.59;100760.88;5239319;28;20052;-75
2022/04/25 05:06:06;;;;;;;24.20;17.33;;;;;;;4.80;99.75;100761.72;5241201;28;20276;-76
2022/04/25 05:08:38;;;;;;;23.80;16.00;;;;;;;4.83;99.06;100769.50;5241988;28;20057;-75
2022/04/25 05:11:11;;;;;;;22.80;17.15;;;;;;;4.82;99.99;100767.78;5223659;28;20018;-78
2022/04/25 05:13:42;;;;;;;32.15;19.42;;;;;;;4.95;100.00;100774.81;5207269;28;20033;-78
2022/04/25 05:16:14;;;;;;;24.83;16.83;;;;;;;5.05;100.00;100771.44;5223243;28;20315;-79
2022/04/25 05:18:46;;;;;;;21.73;17.52;;;;;;;5.22;99.80;100773.34;5239852;28;20124;-78
2022/04/25 05:21:18;;;;;;;27.73;17.37;;;;;;;5.35;99.71;100771.75;5240401;28;20089;-75
2022/04/25 05:23:49;;;;;;;22.67;17.37;;;;;;;5.46;98.74;100777.84;5241738;28;20057;-76
2022/04/25 05:26:20;;;;;;;20.23;15.27;;;;;;;5.58;98.13;100782.25;5238675;28;20236;-78
2022/04/25 05:28:52;;;;;;;19.87;16.90;;;;;;;5.69;97.56;100777.16;5237103;28;20029;-78
2022/04/25 05:31:24;;;;;;;22.80;16.57;;;;;;;5.81;96.93;100777.22;5218091;28;20033;-77
2022/04/25 05:33:56;;;;;;;21.50;16.90;;;;;;;5.89;96.34;100779.88;5237020;28;20485;-76
2022/04/25 05:36:27;;;;;;;20.80;16.20;;;;;;;5.98;95.96;100786.00;5234999;28;20168;-79
2022/04/25 05:38:58;;;;;;;22.10;15.63;;;;;;;6.01;95.28;100775.69;5234939;28;20039;-77
2022/04/25 05:41:32;;;;;;;23.27;16.20;;;;;;;6.24;95.05;100799.97;5234770;28;20374;-76
2022/04/25 05:44:09;;;;;;;24.65;16.30;;;;;;;6.35;94.39;100798.28;5235495;28;20112;-79
2022/04/25 05:46:40;;;;;;;20.80;15.35;;;;;;;6.38;93.78;100806.06;5235426;28;20030;-75
2022/04/25 05:52:04;;;;;;;20.83;14.88;;;;;;;6.62;92.88;100810.50;5234999;28;20493;-79
2022/04/25 05:54:37;;;;;;;21.45;15.77;;;;;;;6.60;92.47;100812.22;5235022;28;20034;-77
2022/04/25 05:57:11;;;;;;;;;;;;;;;6.78;91.85;100819.19;5235866;28;20490;-78
2022/04/25 05:59:42;;;;;;;22.58;15.13;;;;;;;6.79;91.67;100820.91;5235532;28;20460;-79
2022/04/25 06:02:17;;;;;;;18.53;14.33;;;;;;;6.82;91.28;100818.31;5237406;28;20380;-77
2022/04/25 06:04:48;;;;;;;20.05;14.95;;;;;;;6.89;90.84;100820.09;5218720;28;20030;-81
2022/04/25 06:07:19;;;;;;;21.73;14.83;;;;;;;6.99;90.65;100820.97;5235119;28;20048;-81
2022/04/25 06:09:51;;;;;;;21.93;15.47;;;;;;;7.05;90.49;100828.78;5236108;28;20033;-75
2022/04/25 06:12:22;;;;;;;25.77;15.57;;;;;;;6.99;90.21;100827.88;5238979;28;20129;-75
2022/04/25 06:14:53;;;;;;;19.13;15.77;;;;;;;7.07;90.45;100827.03;5219472;28;20041;-78
2022/04/25 06:17:25;;;;;;;19.33;16.53;;;;;;;7.23;90.35;100840.00;5241026;28;20036;-76
2022/04/25 06:19:56;;;;;;;20.40;16.27;;;;;;;7.28;89.88;100830.53;5241756;28;20022;-78
2022/04/25 06:22:27;;;;;;;20.93;15.33;;;;;;;7.37;89.47;100838.31;5243122;28;20048;-78
2022/04/25 06:24:59;;;;;;;18.87;15.37;;;;;;;7.28;89.25;100836.59;5241702;28;20026;-75
2022/04/25 06:27:30;;;;;;;20.80;15.43;;;;;;;7.36;89.47;100846.09;5242043;28;20028;-76
2022/04/25 06:30:04;;;;;;;18.13;15.37;;;;;;;7.44;89.26;100840.06;5221725;28;20239;-76
2022/04/25 06:32:36;;;;;;;19.98;14.73;;;;;;;7.52;88.99;100834.88;5240626;28;20030;-79
2022/04/25 06:35:08;;;;;;;24.88;16.98;;;;;;;7.48;88.94;100841.78;5240961;28;20424;-79
2022/04/25 06:37:39;;;;;;;17.97;15.77;;;;;;;7.52;88.88;100842.66;5239763;28;20037;-76
2022/04/25 06:40:11;;;;;;;19.10;16.80;;;;;;;7.51;88.92;100838.34;5239379;28;20037;-79
2022/04/25 06:42:43;;;;;;;22.10;17.13;;;;;;;7.56;89.04;100838.34;5239152;28;20121;-74
2022/04/25 06:45:15;;;;;;;22.27;17.57;;;;;;;7.56;88.77;100838.34;5238769;28;20493;-78
2022/04/25 06:47:47;;;;;;;19.60;16.55;;;;;;;7.65;88.87;100847.00;5223811;28;20048;-77
2022/04/25 06:50:18;;;;;;;23.40;17.47;;;;;;;7.64;88.50;100841.81;5244749;28;20448;-75
2022/04/25 06:52:49;;;;;;;23.60;16.90;;;;;;;7.71;88.75;100829.69;5244201;28;20029;-75
2022/04/25 06:55:21;;;;;;;21.00;17.37;;;;;;;7.91;88.07;100845.25;5243996;28;20436;-78
2022/04/25 06:57:52;;;;;;;22.30;16.40;;;;;;;8.10;87.70;100851.28;5244294;28;20029;-78
2022/04/25 07:00:26;;;;;;;25.90;17.60;;;;;;;8.27;86.82;100839.13;5224462;28;20501;-78
2022/04/25 07:02:57;;;;;;;22.65;16.88;;;;;;;8.28;86.21;100845.19;5242349;28;20262;-79
2022/04/25 07:05:29;;;;;;;19.13;15.57;;;;;;;8.63;86.00;100850.31;5244326;28;20077;-75
2022/04/25 07:08:00;;;;;;;21.27;17.17;;;;;;;8.55;84.94;100839.09;5241760;28;20029;-77
2022/04/25 07:10:37;;;;;;;21.07;16.90;;;;;;;8.65;84.75;100852.91;5243011;28;20128;-79
2022/04/25 07:13:11;;;;;;;22.67;15.77;;;;;;;8.67;84.90;100849.44;5223841;28;20087;-76
2022/04/25 07:15:42;;;;;;;21.35;17.55;;;;;;;8.49;85.18;100849.50;5240682;28;20561;-75
2022/04/25 07:18:15;;;;;;;27.93;18.73;;;;;;;8.49;84.80;100857.31;5240873;28;20147;-75
2022/04/25 07:20:46;;;;;;;;;;;;;;;8.63;85.09;100854.63;5243123;28;20460;-78
2022/04/25 07:28:58;;;;;;;19.42;16.58;;;;;;;8.72;84.71;100857.22;5225751;28;20089;-74
2022/04/25 07:31:30;;;;;;;19.20;16.95;;;;;;;8.71;84.02;100869.34;5242161;28;20030;-80
2022/04/25 07:34:04;;;;;;;20.50;17.80;;;;;;;8.64;84.89;100864.16;5242188;28;20036;-76
2022/04/25 07:36:38;;;;;;;21.20;17.80;;;;;;;8.60;85.28;100871.13;5242730;28;20044;-76
2022/04/25 07:39:10;;;;;;;23.58;19.23;;;;;;;8.51;85.45;100865.94;5227337;28;20034;-76
2022/04/25 07:41:44;;;;;;;19.73;17.67;;;;;;;8.44;85.57;100866.84;5224897;28;20335;-76
2022/04/25 07:44:16;;;;;;;24.27;18.67;;;;;;;8.35;86.10;100873.72;5244927;28;20093;-78
2022/04/25 07:46:50;;;;;;;22.52;20.15;;;;;;;8.37;86.02;100877.22;5242004;28;20053;-76
2022/04/25 07:49:22;;;;;;;21.33;19.08;;;;;;;8.34;86.45;100871.13;5225584;28;20115;-76
2022/04/25 07:51:55;;;;;;;22.70;17.77;;;;;;;8.33;86.65;100874.63;5242790;28;20204;-78
2022/04/25 07:54:31;;;;;;;22.55;19.25;;;;;;;8.38;86.44;100878.06;5243245;28;20021;-77
2022/04/25 07:57:03;;;;;;;20.83;18.65;;;;;;;8.42;86.14;100874.59;5243335;28;20033;-78
2022/04/25 07:59:34;;;;;;;25.27;20.10;;;;;;;8.40;86.17;100881.53;5244082;28;20034;-76
2022/04/25 08:02:09;;;;;;;25.50;19.43;;;;;;;8.42;86.45;100889.31;5242374;28;20026;-77
2022/04/25 08:04:40;;;;;;;21.67;18.95;;;;;;;8.44;85.97;100887.63;5242059;28;20040;-74
2022/04/25 08:07:17;;;;;;;22.13;18.87;;;;;;;8.40;86.42;100882.41;5243948;28;20022;-78
2022/04/25 08:09:48;;;;;;;22.42;19.15;;;;;;;8.52;85.94;100893.66;5253536;28;20036;-75
2022/04/25 08:18:00;;;;;;;23.95;20.20;;;;;;;8.40;87.94;100908.38;5253064;28;20038;-74
2022/04/25 08:20:35;;;;;;;23.00;20.70;;;;;;;8.26;89.62;100915.31;5235055;28;20101;-74
2022/04/25 08:23:09;;;;;;;26.90;22.77;;;;;;;8.16;90.79;100911.00;5251190;28;20036;-74
2022/04/25 08:25:42;;;;;;;28.60;23.02;;;;;;;8.20;91.95;100917.94;5246477;28;20014;-79
2022/04/25 08:28:14;;;;;;;;;;;;;;;8.36;90.21;100918.78;5245883;28;20065;-76
2022/04/25 08:30:46;;;;;;;26.33;23.58;;;;;;;8.32;91.92;100917.91;5245730;28;19913;-75
2022/04/25 08:33:19;;;;;;;27.17;24.40;;;;;;;8.33;92.22;100922.22;5247200;28;20073;-75
2022/04/25 08:35:51;;;;;;;25.25;22.65;;;;;;;8.43;92.92;100923.09;5242214;28;20026;-76
2022/04/25 08:38:25;;;;;;;26.80;24.00;;;;;;;8.46;93.05;100927.44;5236732;28;20036;-76
2022/04/25 08:40:57;;;;;;;27.98;24.63;;;;;;;8.51;93.96;100925.69;5245440;28;20017;-79
2022/04/25 08:43:30;;;;;;;27.65;24.75;;;;;;;8.62;94.19;100930.88;5247115;28;20041;-75
2022/04/25 08:46:02;;;;;;;30.13;25.33;;;;;;;8.64;95.18;100927.41;5209447;28;20043;-76
2022/04/25 08:48:34;;;;;;;27.13;24.35;;;;;;;8.45;94.18;100944.75;5229538;28;20061;-76
2022/04/25 08:51:09;;;;;;;26.58;23.73;;;;;;;8.33;94.63;100944.75;5224510;28;20039;-80
2022/04/25 08:53:43;;;;;;;27.70;24.90;;;;;;;8.18;95.86;100933.50;5243681;28;20435;-75
2022/04/25 08:56:15;;;;;;;28.55;25.67;;;;;;;8.12;96.32;100945.63;5223707;28;20223;-77
2022/04/25 08:58:56;;;;;;;29.77;26.40;;;;;;;8.20;96.53;100952.53;5221369;28;20116;-78
2022/04/25 09:01:28;;;;;;;28.13;25.20;;;;;;;8.13;96.54;100949.94;5224584;28;20501;-80
2022/04/25 09:04:03;;;;;;;31.30;27.00;;;;;;;8.15;97.25;100950.81;5223690;28;20072;-77
2022/04/25 09:06:35;;;;;;;28.40;25.33;;;;;;;8.13;96.79;100958.63;5237723;28;20029;-79
2022/04/25 09:09:07;;;;;;;30.23;26.37;;;;;;;8.16;97.46;100966.41;5218409;28;20049;-78
2022/04/25 09:14:49;;;;;;;30.77;27.05;;;;;;;8.18;97.49;100974.19;5221383;28;20072;-77
2022/04/25 09:17:21;;;;;;;30.58;27.42;;;;;;;8.17;97.54;100965.53;5219307;28;20033;-80
2022/04/25 09:19:52;;;;;;;31.17;27.90;;;;;;;8.30;97.73;100971.56;5236233;28;20029;-77
2022/04/25 09:22:39;;;;;;;31.73;28.30;;;;;;;8.38;98.34;100968.97;5235644;28;20026;-77
2022/04/25 09:25:16;;;;;;;30.65;27.35;;;;;;;8.32;97.67;100980.25;5235383;28;20030;-77
2022/04/25 09:27:48;;;;;;;32.58;29.15;;;;;;;8.40;97.54;100970.72;5235333;28;20029;-76
2022/04/25 09:30:23;;;;;;;30.17;27.08;;;;;;;8.29;97.79;100974.19;5235156;28;20511;-76
2022/04/25 09:32:54;;;;;;;30.08;27.02;;;;;;;8.26;97.77;100981.97;5234819;28;20440;-77
2022/04/25 09:35:37;;;;;;;32.47;28.73;;;;;;;8.16;98.34;100982.00;5235789;28;20080;-77
2022/04/25 09:38:09;;;;;;;33.45;28.20;;;;;;;8.27;98.51;100981.97;5234312;28;20819;-77
2022/04/25 09:40:41;;;;;;;31.52;27.88;;;;;;;8.48;98.63;100975.06;5235266;28;20037;-78
2022/04/25 09:43:17;;;;;;;32.45;28.95;;;;;;;8.58;98.75;100980.25;5235075;28;20049;-79
2022/04/25 09:46:01;;;;;;;32.47;29.13;;;;;;;8.62;98.59;100980.25;5234826;28;20042;-77
2022/04/25 09:48:33;;;;;;;32.38;28.95;;;;;;;8.66;98.08;100979.38;5234274;28;20036;-78
2022/04/25 09:51:10;;;;;;;32.80;28.50;;;;;;;8.73;97.45;100981.97;5238184;28;20029;-78
2022/04/25 09:53:50;;;;;;;31.40;28.13;;;;;;;8.90;97.00;100991.44;5238550;28;20483;-77
2022/04/25 09:56:26;;;;;;;30.30;27.05;;;;;;;8.84;97.14;100996.66;5239395;28;20014;-76
2022/04/25 09:59:05;;;;;;;30.15;27.15;;;;;;;8.89;96.82;100995.78;5221666;28;20041;-76
2022/04/25 10:01:39;;;;;;;35.03;27.08;;;;;;;8.88;95.81;100999.25;5239433;28;20193;-77
2022/04/25 10:04:33;;;;;;;34.20;28.33;;;;;;;8.94;96.49;101000.97;5239499;28;20029;-77
2022/04/25 10:07:06;;;;;;;29.90;25.35;;;;;;;8.86;96.34;101001.00;5239427;28;20049;-77
2022/04/25 10:09:39;;;;;;;25.80;23.05;;;;;;;8.76;95.53;101005.34;5219745;28;20050;-79
2022/04/25 10:12:11;;;;;;;26.77;24.08;;;;;;;8.67;95.84;101001.91;5238801;28;20032;-79
2022/04/25 10:14:43;;;;;;;27.23;24.42;;;;;;;8.75;96.09;101008.81;5239030;28;20365;-77
2022/04/25 10:17:16;;;;;;;27.33;24.58;;;;;;;8.80;96.34;101014.00;5238155;28;20033;-77
2022/04/25 10:19:50;;;;;;;26.17;23.45;;;;;;;8.76;95.48;101014.88;5237323;28;20393;-78
2022/04/25 10:22:22;;;;;;;26.98;24.38;;;;;;;8.78;95.21;101017.50;5237336;28;20116;-78
2022/04/25 10:24:53;;;;;;;26.93;24.27;;;;;;;8.86;95.69;101013.13;5237161;28;20107;-80
2022/04/25 10:27:31;;;;;;;27.07;23.20;;;;;;;8.90;95.63;101018.31;5238077;28;20112;-77
2022/04/25 10:30:28;;;;;;;26.92;23.52;;;;;;;9.18;96.39;101014.78;5238004;28;20049;-79
2022/04/25 10:33:20;;;;;;;24.00;21.70;;;;;;;9.33;94.50;101009.50;5238466;28;20104;-77
2022/04/25 10:35:52;;;;;;;24.70;22.30;;;;;;;9.52;93.04;101025.06;5238996;28;20039;-75
2022/04/25 10:38:47;;;;;;;23.57;21.10;;;;;;;9.57;92.77;101021.53;5219965;28;20037;-76
2022/04/25 10:44:23;;;;;;;22.30;20.17;;;;;;;9.64;91.26;101038.00;5237189;28;20092;-76
2022/04/25 10:47:03;;;;;;;23.50;21.20;;;;;;;9.77;91.52;101044.88;5237335;28;20594;-79
2022/04/25 10:49:55;;;;;;;22.58;20.35;;;;;;;9.55;91.05;101038.06;5237485;28;20097;-79
2022/04/25 10:52:53;;;;;;;24.20;21.70;;;;;;;9.42;90.79;101030.28;5237684;28;20032;-81
2022/04/25 10:55:33;;;;;;;23.05;20.85;;;;;;;9.36;90.86;101045.94;5238704;28;20022;-76
2022/04/25 10:58:05;;;;;;;23.92;21.70;;;;;;;9.19;91.10;101050.31;5239292;28;20041;-75
2022/04/25 11:00:36;;;;;;;22.87;20.67;;;;;;;9.30;91.31;101040.75;5238160;28;20396;-76
2022/04/25 11:03:28;;;;;;;33.17;29.67;;;;;;;9.31;92.45;101045.09;5238225;28;20034;-76
2022/04/25 11:06:06;;;;;;;28.95;25.95;;;;;;;9.09;93.68;101049.47;5238178;28;20493;-76
2022/04/25 11:08:38;;;;;;;32.42;28.70;;;;;;;9.09;93.58;101047.72;5220028;28;20033;-80
2022/04/25 11:11:16;;;;;;;26.73;23.95;;;;;;;9.12;94.06;101055.53;5237787;28;20025;-76
2022/04/25 11:13:50;;;;;;;30.13;26.88;;;;;;;9.27;93.71;101049.44;5237652;28;20033;-78
2022/04/25 11:16:24;;;;;;;35.70;31.98;;;;;;;9.33;93.37;101048.53;5237992;28;20025;-79
2022/04/25 11:19:05;;;;;;;37.63;33.22;;;;;;;9.44;93.48;101057.16;5237900;28;20029;-76
2022/04/25 11:21:43;;;;;;;32.17;28.23;;;;;;;9.43;93.11;101047.63;5238526;28;20096;-77
2022/04/25 11:24:35;;;;;;;27.67;24.60;;;;;;;9.64;94.98;101053.59;5237457;28;20393;-76
2022/04/25 11:27:14;;;;;;;44.38;39.58;;;;;;;9.42;92.65;101058.91;5236299;28;20021;-77
2022/04/25 11:29:47;;;;;;;35.92;31.52;;;;;;;9.56;92.96;101063.19;5235963;28;20033;-76
2022/04/25 11:32:24;;;;;;;21.85;19.65;;;;;;;9.58;91.79;101064.03;5236132;28;20329;-76
2022/04/25 11:35:00;;;;;;;20.02;18.08;;;;;;;9.63;91.68;101065.78;5236102;28;20029;-76
2022/04/25 11:37:33;;;;;;;20.40;18.40;;;;;;;9.64;91.08;101069.22;5217653;28;20444;-78
2022/04/25 11:40:07;;;;;;;20.30;17.85;;;;;;;9.90;89.70;101065.63;5235773;28;20065;-77
2022/04/25 11:42:38;;;;;;;20.08;17.98;;;;;;;9.96;88.31;101069.06;5235457;28;20045;-79
2022/04/25 11:45:10;;;;;;;20.77;18.63;;;;;;;10.23;88.54;101070.63;5236787;28;20366;-76
2022/04/25 11:47:41;;;;;;;20.10;18.10;;;;;;;10.37;88.49;101075.78;5236762;28;20109;-76
2022/04/25 11:50:13;;;;;;;20.83;18.17;;;;;;;10.60;87.61;101073.88;5218918;28;20487;-77
2022/04/25 11:52:57;;;;;;;20.03;17.70;;;;;;;10.79;88.17;101085.88;5235913;28;20096;-76
2022/04/25 11:55:34;;;;;;;24.15;21.55;;;;;;;10.61;87.43;101080.81;5201925;28;20164;-78
2022/04/25 11:58:05;;;;;;;20.05;18.05;;;;;;;10.62;85.80;101077.34;5237243;28;20026;-76
2022/04/25 12:00:42;;;;;;;20.63;18.33;;;;;;;10.71;86.93;101070.31;5238134;28;20037;-76
2022/04/25 12:03:21;;;;;;;23.10;19.30;;;;;;;10.54;86.87;101075.66;5236916;28;20042;-78
2022/04/25 12:05:52;;;;;;;22.15;19.77;;;;;;;10.41;86.97;101068.81;5237971;28;20088;-79
2022/04/25 12:17:01;;;;;;;27.42;24.30;;;;;;;10.17;86.25;101086.28;5238564;28;20545;-79
2022/04/25 12:19:33;;;;;;;26.08;23.38;;;;;;;10.38;86.28;101081.84;5237430;28;20033;-80
2022/04/25 12:22:04;;;;;;;23.17;20.37;;;;;;;10.26;85.96;101088.00;5238060;28;20033;-76
2022/04/25 12:24:35;;;;;;;21.90;19.67;;;;;;;10.23;86.04;101083.66;5237703;28;20022;-77